Time;durP1;ratioP1;P1;durP2;ratioP2;P2;SDS_P1;SDS_P2;PMS_P1;PMS_P2;Temp;Humidity;BMP_temperature;BMP_pressure;BME280_temperature;BME280_humidity;BME280_pressure;Samples;Min_cycle;Max_cycle;Signal;HPM_P1;HPM_P2
2020/12/16 00:00:44;;;;;;;1.80;1.10;;;7.30;99.90;;;;;;5014943;28;20806;-79
2020/12/16 00:03:10;;;;;;;1.10;1.00;;;7.20;99.90;;;;;;5014662;28;20393;-80
2020/12/16 00:05:35;;;;;;;2.10;1.33;;;7.70;99.90;;;;;;5013493;28;20478;-80
2020/12/16 00:08:02;;;;;;;1.80;1.00;;;7.10;99.90;;;;;;5012045;28;20411;-79
2020/12/16 00:10:28;;;;;;;1.50;1.27;;;7.10;99.90;;;;;;5012620;28;20391;-80
2020/12/16 00:12:53;;;;;;;1.20;1.10;;;7.40;99.90;;;;;;5012144;28;20865;-79
2020/12/16 00:15:19;;;;;;;1.40;1.27;;;7.70;99.90;;;;;;5012762;28;20393;-80
2020/12/16 00:17:45;;;;;;;1.30;1.20;;;7.00;99.90;;;;;;5012701;28;20393;-79
2020/12/16 00:20:10;;;;;;;1.92;1.30;;;8.20;99.90;;;;;;5011891;28;20868;-79
2020/12/16 00:22:40;;;;;;;1.20;1.10;;;7.70;99.90;;;;;;5012332;28;20381;-80
2020/12/16 00:25:08;;;;;;;1.30;1.20;;;7.70;99.90;;;;;;5011900;28;20420;-80
2020/12/16 00:27:34;;;;;;;1.38;0.93;;;;;;;;;;5013196;28;20389;-80
2020/12/16 00:30:00;;;;;;;1.33;1.17;;;6.40;99.90;;;;;;5010640;28;20383;-79
2020/12/16 00:32:27;;;;;;;1.10;0.90;;;7.80;99.90;;;;;;4992448;28;20886;-80
2020/12/16 00:34:53;;;;;;;0.95;0.95;;;7.10;99.90;;;;;;4992533;28;20399;-79
2020/12/16 00:37:19;;;;;;;1.52;1.25;;;8.50;99.90;;;;;;4993022;28;20383;-80
2020/12/16 00:39:44;;;;;;;1.30;0.90;;;7.40;99.90;;;;;;4992736;28;20949;-80
2020/12/16 00:42:10;;;;;;;0.98;0.70;;;7.10;99.90;;;;;;4990989;28;20456;-80
2020/12/16 00:44:38;;;;;;;1.13;1.02;;;7.60;99.90;;;;;;4993045;28;20387;-80
2020/12/16 00:47:04;;;;;;;1.42;1.00;;;7.20;99.90;;;;;;4992358;28;20394;-79
2020/12/16 00:49:31;;;;;;;2.10;0.90;;;7.20;99.90;;;;;;4993031;28;20441;-78
2020/12/16 00:51:57;;;;;;;0.70;0.70;;;7.20;99.90;;;;;;4992237;28;20414;-79
2020/12/16 00:54:23;;;;;;;1.97;1.33;;;7.20;99.90;;;;;;4993032;28;20838;-79
2020/12/16 00:56:48;;;;;;;0.90;0.80;;;7.10;99.90;;;;;;4992098;28;20759;-78
2020/12/16 00:59:14;;;;;;;1.00;0.90;;;8.80;99.90;;;;;;4992510;28;20398;-79
2020/12/16 01:01:40;;;;;;;3.60;1.00;;;7.20;99.90;;;;;;4992858;28;20851;-79
2020/12/16 01:04:06;;;;;;;1.30;1.00;;;8.20;99.90;;;;;;4991954;28;20868;-79
2020/12/16 01:06:31;;;;;;;1.23;1.13;;;7.40;99.90;;;;;;4992882;28;20414;-79
2020/12/16 01:08:57;;;;;;;1.10;0.90;;;7.50;99.90;;;;;;4991762;28;20889;-79
2020/12/16 01:11:23;;;;;;;1.67;1.10;;;7.60;99.90;;;;;;4992590;28;20402;-80
2020/12/16 01:13:48;;;;;;;1.35;1.10;;;8.20;99.90;;;;;;4992565;28;20901;-78
2020/12/16 01:16:14;;;;;;;0.90;0.90;;;7.40;99.90;;;;;;4992402;28;20775;-79
2020/12/16 01:18:40;;;;;;;0.90;0.80;;;7.10;99.90;;;;;;4993200;28;20739;-79
2020/12/16 01:21:06;;;;;;;1.50;0.83;;;9.00;99.90;;;;;;4992616;28;20390;-79
2020/12/16 01:23:31;;;;;;;1.03;0.70;;;7.50;99.90;;;;;;4994092;28;20386;-79
2020/12/16 01:25:57;;;;;;;0.80;0.70;;;7.50;99.90;;;;;;4992230;28;20410;-79
2020/12/16 01:28:23;;;;;;;0.80;0.70;;;7.60;99.90;;;;;;4993321;28;20418;-79
2020/12/16 01:30:48;;;;;;;0.80;0.80;;;6.70;99.90;;;;;;5000574;28;20381;-80
2020/12/16 01:33:14;;;;;;;1.10;0.90;;;7.50;99.90;;;;;;5011571;28;20416;-80
2020/12/16 01:35:40;;;;;;;0.90;0.80;;;7.70;99.90;;;;;;5012440;28;20477;-79
2020/12/16 01:38:06;;;;;;;1.00;0.90;;;7.40;99.90;;;;;;5011564;28;20842;-79
2020/12/16 01:40:32;;;;;;;2.10;0.90;;;8.10;99.90;;;;;;5011959;28;20393;-80
2020/12/16 01:42:57;;;;;;;1.10;0.80;;;7.20;99.90;;;;;;4993371;28;20396;-79
2020/12/16 01:45:24;;;;;;;1.30;0.80;;;7.40;99.90;;;;;;5012016;28;20817;-80
2020/12/16 01:47:50;;;;;;;1.60;0.90;;;7.70;99.90;;;;;;5011874;28;20384;-80
2020/12/16 01:50:17;;;;;;;2.90;0.90;;;5.80;99.90;;;;;;5011124;28;20392;-79
2020/12/16 01:52:44;;;;;;;1.15;1.05;;;7.20;99.90;;;;;;5011972;28;20384;-80
2020/12/16 01:55:12;;;;;;;1.33;1.05;;;7.40;99.90;;;;;;5011034;28;20394;-79
2020/12/16 01:57:39;;;;;;;0.80;0.80;;;8.00;99.90;;;;;;5011880;28;20467;-79
2020/12/16 02:00:07;;;;;;;1.48;0.90;;;7.40;99.90;;;;;;5009608;28;20397;-80
2020/12/16 02:02:38;;;;;;;1.40;1.08;;;7.40;99.90;;;;;;5012034;28;20385;-79
2020/12/16 02:05:04;;;;;;;0.90;0.80;;;7.50;99.90;;;;;;5010621;28;20467;-79
2020/12/16 02:07:32;;;;;;;1.13;0.90;;;7.30;99.90;;;;;;5011780;28;20435;-79
2020/12/16 02:09:57;;;;;;;1.23;0.70;;;8.70;99.90;;;;;;5009391;28;20467;-79
2020/12/16 02:12:29;;;;;;;1.10;1.00;;;7.40;99.90;;;;;;5011634;28;20941;-78
2020/12/16 02:14:54;;;;;;;0.90;0.80;;;7.50;99.90;;;;;;5011262;28;20384;-77
2020/12/16 02:17:20;;;;;;;0.80;0.80;;;5.70;99.90;;;;;;5010835;28;20435;-78
2020/12/16 02:19:56;;;;;;;2.00;0.90;;;7.20;99.90;;;;;;5009833;28;20397;-79
2020/12/16 02:22:23;;;;;;;2.40;1.15;;;7.40;99.90;;;;;;5011047;28;20397;-79
2020/12/16 02:25:00;;;;;;;0.70;0.67;;;8.30;99.90;;;;;;5011150;28;20702;-79
2020/12/16 02:27:27;;;;;;;1.20;0.80;;;7.50;99.90;;;;;;5011055;28;20414;-79
2020/12/16 02:29:53;;;;;;;1.60;0.50;;;8.00;99.90;;;;;;5010974;28;20435;-79
2020/12/16 02:32:22;;;;;;;0.70;0.50;;;8.10;99.90;;;;;;4990864;28;20398;-80
2020/12/16 02:34:48;;;;;;;0.80;0.70;;;7.40;99.90;;;;;;4991413;28;20533;-81
2020/12/16 02:37:14;;;;;;;0.60;0.50;;;7.30;99.90;;;;;;4989513;28;20433;-80
2020/12/16 02:39:40;;;;;;;1.00;0.65;;;8.00;99.90;;;;;;4991349;28;20747;-80
2020/12/16 02:42:08;;;;;;;0.70;0.60;;;7.50;99.90;;;;;;4989796;28;20405;-80
2020/12/16 02:44:34;;;;;;;2.33;0.80;;;7.40;99.90;;;;;;4990961;28;20733;-80
2020/12/16 02:47:01;;;;;;;0.90;0.70;;;6.90;99.90;;;;;;4990679;28;20418;-79
2020/12/16 02:49:27;;;;;;;0.50;0.47;;;7.70;99.90;;;;;;4991940;28;20429;-80
2020/12/16 02:51:54;;;;;;;0.60;0.55;;;8.10;99.90;;;;;;4991564;28;20387;-80
2020/12/16 02:54:21;;;;;;;0.80;0.77;;;7.40;99.90;;;;;;4991389;28;20424;-80
2020/12/16 02:56:53;;;;;;;0.70;0.50;;;7.70;99.90;;;;;;4995429;28;20390;-80
2020/12/16 02:59:24;;;;;;;1.00;0.75;;;8.00;99.90;;;;;;4993230;28;20386;-80
2020/12/16 03:01:55;;;;;;;1.90;0.70;;;8.20;99.90;;;;;;4994892;28;20786;-79
2020/12/16 03:04:22;;;;;;;3.70;0.83;;;7.30;99.90;;;;;;4995047;28;20473;-80
2020/12/16 03:06:49;;;;;;;0.80;0.70;;;7.30;99.90;;;;;;4994857;28;20422;-79
2020/12/16 03:09:16;;;;;;;0.80;0.80;;;8.40;99.90;;;;;;4994341;28;20410;-79
2020/12/16 03:11:42;;;;;;;0.80;0.80;;;7.30;99.90;;;;;;4994617;28;20386;-80
2020/12/16 03:14:09;;;;;;;0.70;0.70;;;8.10;99.90;;;;;;4994103;28;20744;-79
2020/12/16 03:16:35;;;;;;;0.80;0.80;;;7.30;99.90;;;;;;4993553;28;20426;-80
2020/12/16 03:19:01;;;;;;;0.50;0.50;;;7.30;99.90;;;;;;4994053;28;20862;-80
2020/12/16 03:21:28;;;;;;;0.60;0.60;;;7.40;99.90;;;;;;4994477;28;20492;-80
2020/12/16 03:23:54;;;;;;;0.77;0.73;;;7.40;99.90;;;;;;4994700;28;20383;-80
2020/12/16 03:26:20;;;;;;;1.50;0.70;;;7.30;99.90;;;;;;4993875;28;20461;-80
2020/12/16 03:28:46;;;;;;;0.85;0.75;;;7.30;99.90;;;;;;4994838;28;20414;-80
2020/12/16 03:31:13;;;;;;;0.93;0.80;;;8.00;99.90;;;;;;5003315;28;20435;-80
2020/12/16 03:33:40;;;;;;;0.60;0.60;;;7.50;99.90;;;;;;5013624;28;20734;-80
2020/12/16 03:36:06;;;;;;;0.60;0.60;;;7.40;99.90;;;;;;5012264;28;20401;-79
2020/12/16 03:38:32;;;;;;;0.98;0.80;;;9.10;99.90;;;;;;5012701;28;20793;-80
2020/12/16 03:40:58;;;;;;;1.25;1.00;;;7.30;99.90;;;;;;5013999;28;20467;-80
2020/12/16 03:43:24;;;;;;;1.10;0.70;;;7.30;99.90;;;;;;5013432;28;20389;-80
2020/12/16 03:45:50;;;;;;;1.00;0.50;;;7.90;99.90;;;;;;5013588;28;20416;-81
2020/12/16 03:48:16;;;;;;;1.75;0.70;;;7.50;99.90;;;;;;5013282;28;20532;-81
2020/12/16 03:50:42;;;;;;;0.70;0.68;;;7.70;99.90;;;;;;5013707;28;20381;-81
2020/12/16 03:53:08;;;;;;;1.70;0.60;;;7.90;99.90;;;;;;5012954;28;20383;-80
2020/12/16 03:55:34;;;;;;;1.50;0.77;;;9.00;99.90;;;;;;5013977;28;20477;-81
2020/12/16 03:57:59;;;;;;;0.80;0.70;;;7.70;99.90;;;;;;5013572;28;20504;-80
2020/12/16 04:00:25;;;;;;;0.67;0.63;;;7.70;99.90;;;;;;5013012;28;20730;-81
2020/12/16 04:02:51;;;;;;;1.73;0.83;;;8.10;99.90;;;;;;5013286;28;20900;-81
2020/12/16 04:05:17;;;;;;;1.40;0.60;;;7.50;99.90;;;;;;5012223;28;20420;-81
2020/12/16 04:07:42;;;;;;;1.80;0.60;;;7.80;99.90;;;;;;5012963;28;20397;-81
2020/12/16 04:10:08;;;;;;;1.40;0.70;;;9.50;99.90;;;;;;5012274;28;20404;-81
2020/12/16 04:12:34;;;;;;;1.00;0.60;;;8.00;99.90;;;;;;5012756;28;20837;-81
2020/12/16 04:14:59;;;;;;;1.20;0.90;;;7.50;99.90;;;;;;5012452;28;20431;-80
2020/12/16 04:17:25;;;;;;;0.93;0.80;;;8.30;99.90;;;;;;5012137;28;20389;-81
2020/12/16 04:19:51;;;;;;;1.10;1.00;;;7.60;99.90;;;;;;5012861;28;20850;-81
2020/12/16 04:22:16;;;;;;;0.93;0.83;;;8.80;99.90;;;;;;5011631;28;20377;-81
2020/12/16 04:24:42;;;;;;;0.90;0.80;;;8.00;99.90;;;;;;5012647;28;20415;-81
2020/12/16 04:27:07;;;;;;;1.80;0.80;;;7.50;99.90;;;;;;5010511;28;20932;-80
2020/12/16 04:29:33;;;;;;;1.70;0.70;;;7.50;99.90;;;;;;5012557;28;20482;-79
2020/12/16 04:31:59;;;;;;;2.70;0.90;;;8.00;99.90;;;;;;4995669;28;20751;-77
2020/12/16 04:34:25;;;;;;;0.80;0.80;;;7.60;99.90;;;;;;4992482;28;20890;-78
2020/12/16 04:36:51;;;;;;;0.80;0.80;;;7.80;99.90;;;;;;4992812;28;20395;-81
2020/12/16 04:39:18;;;;;;;0.80;0.80;;;8.00;99.90;;;;;;4991853;28;20934;-81
2020/12/16 04:41:44;;;;;;;1.40;1.10;;;8.00;99.90;;;;;;4992553;28;20529;-81
2020/12/16 04:44:12;;;;;;;1.17;0.90;;;8.10;99.90;;;;;;4991717;28;20395;-81
2020/12/16 04:46:41;;;;;;;1.52;0.80;;;8.00;99.90;;;;;;4991420;28;20442;-81
2020/12/16 04:49:08;;;;;;;0.95;0.70;;;7.90;99.90;;;;;;4991219;28;20780;-80
2020/12/16 04:51:35;;;;;;;1.00;0.90;;;8.10;99.90;;;;;;4993657;28;20388;-80
2020/12/16 04:54:02;;;;;;;2.30;0.90;;;7.90;99.90;;;;;;4992357;28;20410;-80
2020/12/16 04:56:30;;;;;;;1.20;1.10;;;9.40;99.90;;;;;;4994829;28;20481;-79
2020/12/16 04:58:56;;;;;;;1.83;1.40;;;7.90;99.90;;;;;;4995817;28;20924;-80
2020/12/16 05:01:22;;;;;;;1.77;1.50;;;8.40;99.90;;;;;;4989549;28;20510;-81
2020/12/16 05:03:47;;;;;;;3.40;1.55;;;8.20;99.90;;;;;;4992241;28;20488;-82
2020/12/16 05:06:35;;;;;;;3.30;1.60;;;9.30;99.90;;;;;;4996082;28;20417;-80
2020/12/16 05:09:05;;;;;;;1.67;1.50;;;7.90;99.90;;;;;;4993821;28;20865;-81
2020/12/16 05:11:45;;;;;;;1.60;1.20;;;9.60;99.90;;;;;;4989080;28;20747;-80
2020/12/16 05:14:20;;;;;;;1.40;1.30;;;7.80;99.90;;;;;;4991919;28;20399;-81
2020/12/16 05:16:53;;;;;;;1.40;1.30;;;7.60;99.90;;;;;;4995610;28;20415;-81
2020/12/16 05:19:29;;;;;;;2.00;1.50;;;8.40;99.90;;;;;;4995813;28;20399;-79
2020/12/16 05:22:11;;;;;;;1.20;1.10;;;9.80;99.90;;;;;;4991047;28;21560;-79
2020/12/16 05:24:37;;;;;;;1.90;1.20;;;7.70;99.90;;;;;;4991374;28;20409;-80
2020/12/16 05:27:03;;;;;;;1.20;1.10;;;8.80;99.90;;;;;;4994873;28;20428;-79
2020/12/16 05:29:29;;;;;;;2.65;1.10;;;6.80;99.90;;;;;;4994256;28;20393;-80
2020/12/16 05:31:55;;;;;;;2.90;1.30;;;8.00;99.90;;;;;;4987803;28;20878;-80
2020/12/16 05:34:28;;;;;;;1.77;1.50;;;9.30;99.90;;;;;;4991564;28;20928;-80
2020/12/16 05:36:54;;;;;;;2.33;1.65;;;;;;;;;;4996206;28;20889;-79
2020/12/16 05:39:20;;;;;;;1.95;1.75;;;7.50;99.90;;;;;;4993011;28;20390;-80
2020/12/16 05:41:54;;;;;;;1.57;1.30;;;7.70;99.90;;;;;;4989265;28;20393;-80
2020/12/16 05:44:21;;;;;;;2.00;1.20;;;7.40;99.90;;;;;;4989768;28;20402;-79
2020/12/16 05:46:48;;;;;;;1.70;1.15;;;8.80;99.90;;;;;;4992297;28;20409;-80
2020/12/16 05:49:27;;;;;;;1.50;1.30;;;7.40;99.90;;;;;;4991466;28;20874;-80
2020/12/16 05:51:57;;;;;;;1.38;1.00;;;7.60;99.90;;;;;;4989179;28;20402;-79
2020/12/16 05:54:23;;;;;;;1.00;0.90;;;7.60;99.90;;;;;;4992646;28;20395;-80
2020/12/16 05:57:12;;;;;;;2.58;1.05;;;7.40;99.90;;;;;;4991837;28;20414;-80
2020/12/16 05:59:38;;;;;;;2.37;1.30;;;7.30;99.90;;;;;;4991476;28;20479;-80
2020/12/16 06:02:05;;;;;;;1.77;1.65;;;7.90;99.90;;;;;;4990829;28;20544;-80
2020/12/16 06:04:35;;;;;;;3.20;2.05;;;6.90;99.90;;;;;;4995083;28;20416;-81
2020/12/16 06:07:06;;;;;;;2.33;1.63;;;9.50;99.90;;;;;;4994823;28;20416;-79
2020/12/16 06:09:32;;;;;;;3.90;1.80;;;7.40;99.90;;;;;;4990197;28;20404;-78
2020/12/16 06:12:06;;;;;;;1.95;1.10;;;7.30;99.90;;;;;;4992078;28;20486;-79
2020/12/16 06:14:35;;;;;;;1.60;1.30;;;8.10;99.90;;;;;;4993492;28;20385;-78
2020/12/16 06:17:09;;;;;;;2.78;1.55;;;7.40;99.90;;;;;;4994958;28;20486;-80
2020/12/16 06:19:35;;;;;;;1.30;1.20;;;8.80;99.90;;;;;;4991251;28;20395;-80
2020/12/16 06:22:08;;;;;;;1.30;1.20;;;7.50;99.90;;;;;;4991856;28;20527;-80
2020/12/16 06:24:44;;;;;;;1.45;1.25;;;7.40;99.90;;;;;;4992644;28;20382;-81
2020/12/16 06:27:12;;;;;;;2.10;1.90;;;7.60;99.90;;;;;;4991139;28;20403;-79
2020/12/16 06:29:48;;;;;;;2.28;1.30;;;7.80;99.90;;;;;;4995446;28;20386;-80
2020/12/16 06:32:25;;;;;;;1.50;1.30;;;7.50;99.90;;;;;;5013795;28;20439;-78
2020/12/16 06:34:53;;;;;;;1.85;1.10;;;8.10;99.90;;;;;;5017036;28;20384;-80
2020/12/16 06:37:18;;;;;;;1.40;1.30;;;7.60;99.90;;;;;;5014982;28;20400;-80
2020/12/16 06:39:44;;;;;;;1.40;1.30;;;7.70;99.90;;;;;;5015868;28;20896;-81
2020/12/16 06:42:10;;;;;;;1.10;1.00;;;7.50;99.90;;;;;;5015255;28;20403;-79
2020/12/16 06:44:35;;;;;;;1.30;1.20;;;8.10;99.90;;;;;;5014311;28;20482;-81
2020/12/16 06:47:03;;;;;;;1.73;1.50;;;7.60;99.90;;;;;;5016129;28;20408;-81
2020/12/16 06:49:34;;;;;;;1.00;0.90;;;7.80;99.90;;;;;;5015242;28;20853;-81
2020/12/16 06:52:11;;;;;;;1.90;1.40;;;7.50;99.90;;;;;;5015549;28;20792;-80
2020/12/16 06:54:44;;;;;;;1.40;1.30;;;7.50;99.90;;;;;;5015421;28;20388;-81
2020/12/16 06:57:18;;;;;;;3.78;1.55;;;8.90;99.90;;;;;;5015712;28;20388;-78
2020/12/16 06:59:46;;;;;;;1.00;0.90;;;7.10;99.90;;;;;;5015335;28;20420;-81
2020/12/16 07:02:14;;;;;;;1.70;0.90;;;9.40;99.90;;;;;;5015213;28;20385;-79
2020/12/16 07:04:40;;;;;;;1.60;1.27;;;7.40;99.90;;;;;;5015495;28;20893;-80
2020/12/16 07:07:06;;;;;;;1.70;1.40;;;7.60;99.90;;;;;;5015097;28;20447;-81
2020/12/16 07:09:33;;;;;;;2.15;1.33;;;7.10;99.90;;;;;;5014561;28;20389;-80
2020/12/16 07:11:59;;;;;;;3.13;2.00;;;7.60;99.90;;;;;;5016231;28;20389;-81
2020/12/16 07:14:33;;;;;;;2.20;2.00;;;7.20;99.90;;;;;;5014787;28;20721;-80
2020/12/16 07:17:11;;;;;;;1.92;1.73;;;7.40;99.90;;;;;;5015564;28;20392;-81
2020/12/16 07:19:37;;;;;;;3.00;2.10;;;7.50;99.90;;;;;;5015113;28;20384;-80
2020/12/16 07:22:24;;;;;;;2.00;1.80;;;8.10;99.90;;;;;;5015828;28;20868;-79
2020/12/16 07:24:51;;;;;;;1.55;1.40;;;7.60;99.90;;;;;;5015167;28;20388;-79
2020/12/16 07:27:19;;;;;;;2.60;2.17;;;7.50;99.90;;;;;;5014045;28;20388;-81
2020/12/16 07:29:58;;;;;;;4.20;2.10;;;7.70;99.90;;;;;;5014905;28;20932;-80
2020/12/16 07:32:26;;;;;;;2.05;1.95;;;7.20;99.90;;;;;;4994045;28;20417;-80
2020/12/16 07:34:53;;;;;;;2.92;2.67;;;7.40;99.90;;;;;;4994645;28;20390;-80
2020/12/16 07:37:23;;;;;;;4.03;3.10;;;8.20;99.90;;;;;;4994008;28;20391;-81
2020/12/16 07:39:57;;;;;;;3.75;3.17;;;7.90;99.90;;;;;;4993977;28;20438;-80
2020/12/16 07:42:26;;;;;;;2.53;2.17;;;7.60;99.90;;;;;;4993783;28;20399;-80
2020/12/16 07:44:52;;;;;;;2.25;1.88;;;7.40;99.90;;;;;;4994434;28;20391;-79
2020/12/16 07:47:18;;;;;;;2.47;1.80;;;7.70;99.90;;;;;;4993861;28;20444;-79
2020/12/16 07:49:45;;;;;;;2.10;1.90;;;7.40;99.90;;;;;;4992773;28;20393;-79
2020/12/16 07:52:12;;;;;;;2.10;1.90;;;7.50;99.90;;;;;;5001120;28;20397;-79
2020/12/16 07:54:38;;;;;;;1.88;1.65;;;7.50;99.90;;;;;;5011511;28;20516;-80
2020/12/16 07:57:04;;;;;;;2.75;1.55;;;8.00;99.90;;;;;;5013713;28;20392;-79
2020/12/16 07:59:35;;;;;;;1.70;1.33;;;7.70;99.90;;;;;;5011960;28;20531;-80
2020/12/16 08:02:12;;;;;;;2.50;1.50;;;7.60;99.90;;;;;;5012228;28;20892;-79
2020/12/16 08:04:39;;;;;;;2.83;1.80;;;7.80;99.90;;;;;;5010115;28;20397;-80
2020/12/16 08:07:24;;;;;;;1.90;1.80;;;8.10;99.90;;;;;;5012824;28;20444;-81
2020/12/16 08:09:59;;;;;;;2.00;1.70;;;7.60;99.90;;;;;;5012137;28;20404;-80
2020/12/16 08:12:34;;;;;;;1.73;1.48;;;7.80;99.90;;;;;;5011180;28;20389;-80
2020/12/16 08:15:09;;;;;;;1.90;1.70;;;8.00;99.90;;;;;;5011152;28;20790;-80
2020/12/16 08:17:42;;;;;;;2.42;2.00;;;7.90;99.90;;;;;;5009231;28;20617;-79
2020/12/16 08:20:17;;;;;;;1.60;1.50;;;7.80;99.90;;;;;;5011445;28;20388;-80
2020/12/16 08:22:44;;;;;;;2.20;2.00;;;;;;;;;;5006630;28;20436;-79
2020/12/16 08:25:12;;;;;;;2.00;1.60;;;8.10;99.90;;;;;;5003778;28;20830;-80
2020/12/16 08:27:42;;;;;;;4.20;1.90;;;7.90;99.90;;;;;;5010118;28;20389;-80
2020/12/16 08:30:08;;;;;;;2.75;2.10;;;7.90;99.90;;;;;;5011362;28;20455;-80
2020/12/16 08:32:56;;;;;;;2.50;2.30;;;8.50;99.90;;;;;;5011351;28;20626;-80
2020/12/16 08:35:48;;;;;;;3.30;1.77;;;8.10;99.90;;;;;;5003615;28;20426;-80
2020/12/16 08:38:39;;;;;;;2.20;1.90;;;7.90;99.90;;;;;;4998688;28;20398;-79
2020/12/16 08:41:22;;;;;;;2.47;2.10;;;7.90;99.90;;;;;;4999805;28;20410;-80
2020/12/16 08:43:48;;;;;;;2.13;1.93;;;8.00;99.90;;;;;;5008178;28;20425;-81
2020/12/16 08:46:19;;;;;;;1.87;1.77;;;8.10;99.90;;;;;;5007787;28;20408;-80
2020/12/16 08:48:59;;;;;;;2.17;2.03;;;8.20;99.90;;;;;;5005293;28;20445;-81
2020/12/16 08:51:37;;;;;;;2.97;1.95;;;8.10;99.90;;;;;;4991100;28;20860;-80
2020/12/16 08:54:09;;;;;;;3.40;1.90;;;8.10;99.90;;;;;;4995215;28;20399;-80
2020/12/16 08:56:44;;;;;;;3.83;2.00;;;8.00;99.90;;;;;;5010831;28;20468;-81
2020/12/16 08:59:18;;;;;;;2.00;1.90;;;;;;;;;;5009906;28;20397;-81
2020/12/16 09:01:49;;;;;;;2.25;2.03;;;7.00;99.90;;;;;;5011279;28;20376;-80
2020/12/16 09:04:39;;;;;;;3.60;2.10;;;8.20;99.90;;;;;;5012298;28;20523;-80
2020/12/16 09:07:08;;;;;;;3.63;2.15;;;8.50;99.90;;;;;;5009488;28;20413;-80
2020/12/16 09:09:51;;;;;;;2.45;2.15;;;8.50;99.90;;;;;;5011510;28;20402;-80
2020/12/16 09:12:22;;;;;;;3.35;2.17;;;8.50;99.90;;;;;;5007612;28;20376;-79
2020/12/16 09:14:53;;;;;;;2.30;2.00;;;8.30;99.90;;;;;;5010253;28;20380;-79
2020/12/16 09:17:21;;;;;;;2.17;1.95;;;8.00;99.90;;;;;;5011311;28;20381;-80
2020/12/16 09:19:47;;;;;;;1.90;1.80;;;8.50;99.90;;;;;;5009669;28;20459;-80
2020/12/16 09:22:13;;;;;;;3.17;2.38;;;9.60;99.90;;;;;;5005039;28;20415;-81
2020/12/16 09:24:45;;;;;;;1.95;1.85;;;;;;;;;;4998950;28;20773;-82
2020/12/16 09:27:11;;;;;;;2.85;1.80;;;8.80;99.90;;;;;;5000759;28;20417;-80
2020/12/16 09:29:44;;;;;;;2.15;1.95;;;8.70;99.90;;;;;;5000589;28;20903;-80
2020/12/16 09:32:18;;;;;;;4.20;1.80;;;9.30;99.90;;;;;;5001560;28;20708;-80
2020/12/16 09:34:48;;;;;;;2.00;1.90;;;8.80;99.90;;;;;;4998826;28;20516;-82
2020/12/16 09:37:28;;;;;;;2.47;2.23;;;8.90;99.90;;;;;;5006697;28;20410;-81
2020/12/16 09:40:08;;;;;;;2.78;2.10;;;9.00;99.90;;;;;;5010457;28;20397;-81
2020/12/16 09:42:34;;;;;;;2.30;2.00;;;8.90;99.90;;;;;;5009618;28;20862;-81
2020/12/16 09:45:20;;;;;;;2.03;1.85;;;9.20;99.90;;;;;;5011053;28;20373;-81
2020/12/16 09:47:48;;;;;;;2.13;1.93;;;9.70;99.90;;;;;;5009489;28;20392;-80
2020/12/16 09:50:15;;;;;;;3.97;2.20;;;9.10;99.90;;;;;;5011316;28;20385;-81
2020/12/16 09:52:41;;;;;;;2.00;1.90;;;9.20;99.90;;;;;;5009974;28;20890;-78
2020/12/16 09:55:21;;;;;;;4.03;1.90;;;9.30;99.90;;;;;;5005759;28;20404;-80
2020/12/16 09:58:07;;;;;;;3.35;2.20;;;9.60;99.90;;;;;;5011462;28;20388;-79
2020/12/16 10:00:34;;;;;;;3.90;2.10;;;9.70;99.90;;;;;;5009887;28;20388;-80
2020/12/16 10:03:06;;;;;;;2.30;2.10;;;9.80;99.90;;;;;;5010713;28;20381;-79
2020/12/16 10:05:37;;;;;;;4.63;2.00;;;10.10;99.90;;;;;;5009692;28;20495;-79
2020/12/16 10:08:05;;;;;;;2.13;1.80;;;9.90;99.90;;;;;;5011194;28;20801;-81
2020/12/16 10:10:32;;;;;;;3.00;2.00;;;9.90;99.90;;;;;;4992731;28;20891;-81
2020/12/16 10:12:59;;;;;;;2.00;1.80;;;10.00;99.90;;;;;;5010855;28;20416;-79
2020/12/16 10:15:27;;;;;;;3.28;2.67;;;9.90;99.90;;;;;;5000219;28;20406;-79
2020/12/16 10:17:54;;;;;;;2.40;2.17;;;10.40;99.90;;;;;;4999520;28;20535;-79
2020/12/16 10:20:19;;;;;;;2.00;1.80;;;10.40;99.90;;;;;;5001553;28;20386;-79
2020/12/16 10:22:45;;;;;;;2.78;2.00;;;10.40;99.90;;;;;;4998980;28;20387;-80
2020/12/16 10:25:12;;;;;;;2.20;1.83;;;10.60;99.90;;;;;;4998063;28;20396;-78
2020/12/16 10:27:38;;;;;;;2.10;1.90;;;10.40;99.90;;;;;;5002119;28;20399;-80
2020/12/16 10:30:05;;;;;;;2.03;1.83;;;10.40;99.90;;;;;;5010638;28;20456;-80
2020/12/16 10:32:33;;;;;;;1.98;1.70;;;10.30;99.90;;;;;;5009121;28;20785;-80
2020/12/16 10:34:58;;;;;;;1.90;1.70;;;10.40;99.90;;;;;;5010844;28;20800;-80
2020/12/16 10:37:25;;;;;;;1.90;1.55;;;10.80;99.90;;;;;;5009433;28;20416;-80
2020/12/16 10:39:51;;;;;;;2.00;1.90;;;10.80;99.90;;;;;;4993367;28;20445;-80
2020/12/16 10:42:18;;;;;;;1.55;1.45;;;10.80;99.90;;;;;;4990134;28;20399;-79
2020/12/16 10:45:00;;;;;;;1.95;1.73;;;;;;;;;;4990883;28;20395;-80
2020/12/16 10:47:26;;;;;;;1.80;1.60;;;10.80;99.90;;;;;;4990690;28;20390;-79
2020/12/16 10:49:52;;;;;;;1.75;1.50;;;10.70;99.90;;;;;;4991674;28;20433;-80
2020/12/16 10:52:17;;;;;;;2.00;1.80;;;10.80;99.90;;;;;;4991434;28;20440;-80
2020/12/16 10:54:43;;;;;;;3.88;2.10;;;11.20;99.90;;;;;;4990860;28;20398;-80
2020/12/16 10:57:09;;;;;;;3.17;1.90;;;11.00;99.90;;;;;;4989973;28;20482;-80
2020/12/16 10:59:35;;;;;;;1.88;1.77;;;11.10;99.90;;;;;;4990477;28;20441;-81
2020/12/16 11:02:04;;;;;;;3.00;2.70;;;11.20;99.90;;;;;;4994402;28;20501;-81
2020/12/16 11:04:31;;;;;;;3.10;2.80;;;11.40;99.90;;;;;;5002097;28;20399;-81
2020/12/16 11:06:57;;;;;;;3.70;3.30;;;10.70;99.90;;;;;;5011918;28;20496;-81
2020/12/16 11:09:24;;;;;;;3.92;3.40;;;11.00;99.90;;;;;;5010751;28;20405;-79
2020/12/16 11:11:53;;;;;;;3.90;3.60;;;11.30;99.90;;;;;;5008059;28;20873;-82
2020/12/16 11:14:20;;;;;;;3.80;3.40;;;10.90;99.90;;;;;;5010704;28;20393;-80
2020/12/16 11:16:47;;;;;;;4.55;4.05;;;10.80;99.90;;;;;;5013500;28;20411;-81
2020/12/16 11:19:16;;;;;;;5.35;4.50;;;10.80;99.90;;;;;;5013655;28;20388;-80
2020/12/16 11:21:47;;;;;;;5.20;4.70;;;10.60;99.90;;;;;;5013054;28;20608;-78
2020/12/16 11:24:15;;;;;;;6.80;5.25;;;10.30;99.90;;;;;;5012009;28;20416;-81
2020/12/16 11:26:49;;;;;;;6.00;4.60;;;11.00;99.90;;;;;;5011714;28;20417;-81
2020/12/16 11:29:16;;;;;;;5.30;4.80;;;10.40;99.90;;;;;;5011923;28;20381;-79
2020/12/16 11:31:47;;;;;;;5.47;4.40;;;10.50;99.90;;;;;;5008965;28;20885;-80
2020/12/16 11:34:19;;;;;;;5.70;4.90;;;10.70;99.90;;;;;;5011722;28;20865;-80
2020/12/16 11:36:46;;;;;;;5.67;5.00;;;10.80;99.90;;;;;;5013208;28;20393;-80
2020/12/16 11:39:13;;;;;;;6.65;5.05;;;10.60;99.90;;;;;;5013300;28;20893;-80
2020/12/16 11:41:44;;;;;;;5.03;4.53;;;10.60;99.90;;;;;;5012879;28;20400;-80
2020/12/16 11:44:11;;;;;;;5.83;4.97;;;11.10;99.90;;;;;;5011119;28;20381;-80
2020/12/16 11:46:37;;;;;;;5.28;4.50;;;11.10;99.90;;;;;;5012559;28;20416;-79
2020/12/16 11:49:03;;;;;;;5.97;4.33;;;11.30;99.90;;;;;;5013213;28;20385;-79
2020/12/16 11:51:29;;;;;;;4.68;4.18;;;11.30;99.90;;;;;;5009950;28;20384;-79
2020/12/16 11:53:55;;;;;;;5.60;4.47;;;11.20;99.90;;;;;;5013578;28;20439;-79
2020/12/16 11:56:22;;;;;;;5.22;4.28;;;11.40;99.90;;;;;;5013349;28;20726;-81
2020/12/16 11:58:48;;;;;;;7.93;4.53;;;11.60;99.90;;;;;;5012464;28;20452;-82
2020/12/16 12:01:16;;;;;;;4.88;4.38;;;11.00;99.90;;;;;;5012620;28;21030;-79
2020/12/16 12:03:47;;;;;;;5.65;5.03;;;11.00;99.90;;;;;;5012453;28;20936;-82
2020/12/16 12:06:14;;;;;;;5.50;5.00;;;10.90;99.90;;;;;;5009739;28;20813;-80
2020/12/16 12:08:40;;;;;;;5.53;5.03;;;11.00;99.90;;;;;;5012410;28;20388;-80
2020/12/16 12:11:12;;;;;;;5.47;4.57;;;11.20;99.90;;;;;;5013354;28;20407;-81
2020/12/16 12:13:39;;;;;;;6.65;4.57;;;11.30;99.90;;;;;;5012300;28;20378;-81
2020/12/16 12:16:06;;;;;;;5.60;5.00;;;11.10;99.90;;;;;;5013322;28;20396;-81
2020/12/16 12:18:32;;;;;;;5.50;4.70;;;11.20;99.90;;;;;;5013355;28;20421;-79
2020/12/16 12:20:58;;;;;;;6.17;4.90;;;11.10;99.90;;;;;;5012370;28;20808;-79
2020/12/16 12:23:24;;;;;;;8.73;5.90;;;10.70;99.90;;;;;;5013025;28;20385;-79
2020/12/16 12:25:49;;;;;;;5.83;5.23;;;10.90;99.90;;;;;;5012372;28;20413;-79
2020/12/16 12:28:15;;;;;;;6.25;5.30;;;10.80;99.90;;;;;;5013005;28;20389;-79
2020/12/16 12:30:41;;;;;;;7.63;5.63;;;11.10;99.90;;;;;;5011992;28;20423;-79
2020/12/16 12:33:21;;;;;;;5.60;5.00;;;11.20;99.90;;;;;;5012790;28;20424;-80
2020/12/16 12:35:47;;;;;;;5.63;4.72;;;11.20;99.90;;;;;;5010903;28;20393;-79
2020/12/16 12:38:13;;;;;;;7.10;4.80;;;11.30;99.90;;;;;;5004624;28;20389;-79
2020/12/16 12:40:39;;;;;;;6.53;5.10;;;11.10;99.90;;;;;;5010497;28;20397;-80
2020/12/16 12:43:06;;;;;;;6.50;4.90;;;11.10;99.90;;;;;;5010047;28;20392;-80
2020/12/16 12:45:33;;;;;;;5.80;4.40;;;11.20;99.90;;;;;;5011600;28;20415;-80
2020/12/16 12:47:58;;;;;;;5.55;4.95;;;11.30;99.90;;;;;;5012697;28;20742;-80
2020/12/16 12:50:30;;;;;;;5.70;5.07;;;11.60;99.90;;;;;;5012705;28;20389;-81
2020/12/16 12:52:55;;;;;;;6.30;5.15;;;10.90;99.90;;;;;;5012410;28;20877;-80
2020/12/16 12:55:21;;;;;;;6.82;5.70;;;11.20;99.90;;;;;;5011575;28;20431;-80
2020/12/16 12:57:47;;;;;;;6.60;5.10;;;11.20;99.90;;;;;;5011766;28;20400;-80
2020/12/16 13:00:14;;;;;;;5.95;5.35;;;10.90;99.90;;;;;;5012448;28;20479;-79
2020/12/16 13:02:40;;;;;;;5.03;4.55;;;10.70;99.90;;;;;;5011417;28;20416;-80